sensor_id;sensor_type;location;lat;lon;timestamp;P1;durP1;ratioP1;P2;durP2;ratioP2
53285;SDS011;39171;45.550;12.074;2022-09-09T00:02:36;1.60;;;1.07;;
53285;SDS011;39171;45.550;12.074;2022-09-09T00:08:44;1.60;;;0.90;;
53285;SDS011;39171;45.550;12.074;2022-09-09T00:21:46;1.63;;;1.08;;
53285;SDS011;39171;45.550;12.074;2022-09-09T00:39:50;1.67;;;1.05;;
53285;SDS011;39171;45.550;12.074;2022-09-09T00:52:23;1.50;;;0.90;;
53285;SDS011;39171;45.550;12.074;2022-09-09T00:58:36;1.83;;;1.00;;
53285;SDS011;39171;45.550;12.074;2022-09-09T01:04:38;1.63;;;1.00;;
53285;SDS011;39171;45.550;12.074;2022-09-09T01:10:43;1.15;;;0.85;;
53285;SDS011;39171;45.550;12.074;2022-09-09T01:16:56;1.45;;;0.90;;
53285;SDS011;39171;45.550;12.074;2022-09-09T01:29:11;1.55;;;0.93;;
53285;SDS011;39171;45.550;12.074;2022-09-09T01:41:35;1.90;;;1.10;;
53285;SDS011;39171;45.550;12.074;2022-09-09T01:47:39;1.30;;;1.05;;
53285;SDS011;39171;45.550;12.074;2022-09-09T01:53:54;2.15;;;1.00;;
53285;SDS011;39171;45.550;12.074;2022-09-09T02:00:06;1.17;;;0.82;;
53285;SDS011;39171;45.550;12.074;2022-09-09T02:12:31;2.08;;;1.23;;
53285;SDS011;39171;45.550;12.074;2022-09-09T02:18:35;1.50;;;1.08;;
53285;SDS011;39171;45.550;12.074;2022-09-09T02:24:44;1.20;;;0.90;;
53285;SDS011;39171;45.550;12.074;2022-09-09T02:30:55;1.20;;;0.90;;
53285;SDS011;39171;45.550;12.074;2022-09-09T02:37:06;1.73;;;1.27;;
53285;SDS011;39171;45.550;12.074;2022-09-09T02:43:13;1.13;;;0.82;;
53285;SDS011;39171;45.550;12.074;2022-09-09T02:49:19;1.70;;;1.25;;
53285;SDS011;39171;45.550;12.074;2022-09-09T02:55:43;1.42;;;1.10;;
53285;SDS011;39171;45.550;12.074;2022-09-09T03:01:54;1.40;;;1.20;;
53285;SDS011;39171;45.550;12.074;2022-09-09T03:07:58;1.73;;;1.00;;
53285;SDS011;39171;45.550;12.074;2022-09-09T03:13:59;1.50;;;0.82;;
53285;SDS011;39171;45.550;12.074;2022-09-09T03:20:05;1.50;;;1.20;;
53285;SDS011;39171;45.550;12.074;2022-09-09T03:26:08;1.15;;;0.85;;
53285;SDS011;39171;45.550;12.074;2022-09-09T03:32:15;1.40;;;1.15;;
53285;SDS011;39171;45.550;12.074;2022-09-09T03:38:18;2.03;;;0.90;;
53285;SDS011;39171;45.550;12.074;2022-09-09T03:44:20;1.88;;;1.20;;
53285;SDS011;39171;45.550;12.074;2022-09-09T03:50:21;1.70;;;1.08;;
53285;SDS011;39171;45.550;12.074;2022-09-09T03:56:24;1.73;;;1.25;;
53285;SDS011;39171;45.550;12.074;2022-09-09T04:02:26;1.55;;;1.25;;
53285;SDS011;39171;45.550;12.074;2022-09-09T04:08:27;1.58;;;1.10;;
53285;SDS011;39171;45.550;12.074;2022-09-09T04:14:29;2.13;;;1.10;;
53285;SDS011;39171;45.550;12.074;2022-09-09T04:20:31;2.13;;;1.35;;
53285;SDS011;39171;45.550;12.074;2022-09-09T04:26:34;2.53;;;1.50;;
53285;SDS011;39171;45.550;12.074;2022-09-09T04:32:38;2.33;;;1.65;;
53285;SDS011;39171;45.550;12.074;2022-09-09T04:38:39;2.22;;;1.50;;
53285;SDS011;39171;45.550;12.074;2022-09-09T04:44:42;2.13;;;1.50;;
53285;SDS011;39171;45.550;12.074;2022-09-09T04:50:53;2.17;;;1.50;;
53285;SDS011;39171;45.550;12.074;2022-09-09T04:57:03;2.33;;;1.80;;
53285;SDS011;39171;45.550;12.074;2022-09-09T05:03:06;2.85;;;2.08;;
53285;SDS011;39171;45.550;12.074;2022-09-09T05:09:09;2.55;;;1.90;;
53285;SDS011;39171;45.550;12.074;2022-09-09T05:15:10;2.90;;;1.83;;
53285;SDS011;39171;45.550;12.074;2022-09-09T05:21:13;2.13;;;1.83;;
53285;SDS011;39171;45.550;12.074;2022-09-09T05:27:17;2.58;;;1.73;;
53285;SDS011;39171;45.550;12.074;2022-09-09T05:33:20;2.38;;;1.60;;
53285;SDS011;39171;45.550;12.074;2022-09-09T05:39:22;2.33;;;1.60;;
53285;SDS011;39171;45.550;12.074;2022-09-09T05:45:24;2.38;;;1.67;;
53285;SDS011;39171;45.550;12.074;2022-09-09T05:51:26;3.03;;;2.03;;
53285;SDS011;39171;45.550;12.074;2022-09-09T05:57:32;2.22;;;1.63;;
53285;SDS011;39171;45.550;12.074;2022-09-09T06:03:34;2.00;;;1.60;;
53285;SDS011;39171;45.550;12.074;2022-09-09T06:09:37;1.92;;;1.40;;
53285;SDS011;39171;45.550;12.074;2022-09-09T06:15:38;2.33;;;1.55;;
53285;SDS011;39171;45.550;12.074;2022-09-09T06:21:41;2.33;;;1.67;;
53285;SDS011;39171;45.550;12.074;2022-09-09T06:27:48;2.30;;;1.70;;
53285;SDS011;39171;45.550;12.074;2022-09-09T06:33:51;2.00;;;1.58;;
53285;SDS011;39171;45.550;12.074;2022-09-09T06:39:55;2.92;;;1.75;;
53285;SDS011;39171;45.550;12.074;2022-09-09T06:45:58;1.95;;;1.35;;
53285;SDS011;39171;45.550;12.074;2022-09-09T06:52:21;1.85;;;1.27;;
53285;SDS011;39171;45.550;12.074;2022-09-09T06:58:22;2.00;;;1.40;;
53285;SDS011;39171;45.550;12.074;2022-09-09T07:04:25;1.80;;;1.20;;
53285;SDS011;39171;45.550;12.074;2022-09-09T07:10:26;1.83;;;1.30;;
53285;SDS011;39171;45.550;12.074;2022-09-09T07:16:29;1.92;;;1.30;;
53285;SDS011;39171;45.550;12.074;2022-09-09T07:22:35;1.55;;;1.15;;
53285;SDS011;39171;45.550;12.074;2022-09-09T07:28:37;2.15;;;1.48;;
53285;SDS011;39171;45.550;12.074;2022-09-09T07:34:39;1.48;;;1.08;;
53285;SDS011;39171;45.550;12.074;2022-09-09T07:40:41;2.78;;;1.10;;
53285;SDS011;39171;45.550;12.074;2022-09-09T07:46:42;1.20;;;0.90;;
53285;SDS011;39171;45.550;12.074;2022-09-09T07:52:50;1.45;;;1.00;;
53285;SDS011;39171;45.550;12.074;2022-09-09T07:58:55;1.48;;;1.00;;
53285;SDS011;39171;45.550;12.074;2022-09-09T08:04:57;1.65;;;1.27;;
53285;SDS011;39171;45.550;12.074;2022-09-09T08:11:04;1.77;;;1.10;;
53285;SDS011;39171;45.550;12.074;2022-09-09T08:17:17;1.80;;;1.50;;
53285;SDS011;39171;45.550;12.074;2022-09-09T08:23:19;1.27;;;0.85;;
53285;SDS011;39171;45.550;12.074;2022-09-09T08:29:21;1.50;;;1.05;;
53285;SDS011;39171;45.550;12.074;2022-09-09T08:35:24;1.65;;;0.90;;
53285;SDS011;39171;45.550;12.074;2022-09-09T08:41:35;1.38;;;0.80;;
53285;SDS011;39171;45.550;12.074;2022-09-09T08:54:07;1.45;;;0.90;;
53285;SDS011;39171;45.550;12.074;2022-09-09T09:00:11;1.27;;;0.80;;
53285;SDS011;39171;45.550;12.074;2022-09-09T09:06:30;1.05;;;0.80;;
53285;SDS011;39171;45.550;12.074;2022-09-09T09:12:46;2.08;;;1.02;;
53285;SDS011;39171;45.550;12.074;2022-09-09T09:18:56;1.02;;;0.82;;
53285;SDS011;39171;45.550;12.074;2022-09-09T09:25:02;1.40;;;1.00;;
53285;SDS011;39171;45.550;12.074;2022-09-09T09:31:09;1.17;;;0.77;;
53285;SDS011;39171;45.550;12.074;2022-09-09T09:37:18;1.58;;;0.90;;
53285;SDS011;39171;45.550;12.074;2022-09-09T09:43:39;2.78;;;1.00;;
53285;SDS011;39171;45.550;12.074;2022-09-09T09:49:54;1.10;;;0.80;;
53285;SDS011;39171;45.550;12.074;2022-09-09T09:56:08;1.55;;;0.90;;
53285;SDS011;39171;45.550;12.074;2022-09-09T10:02:14;1.15;;;1.00;;
53285;SDS011;39171;45.550;12.074;2022-09-09T10:08:21;0.93;;;0.80;;
53285;SDS011;39171;45.550;12.074;2022-09-09T10:39:37;1.02;;;0.80;;
53285;SDS011;39171;45.550;12.074;2022-09-09T10:52:09;1.50;;;1.00;;
53285;SDS011;39171;45.550;12.074;2022-09-09T11:04:41;0.95;;;0.70;;
53285;SDS011;39171;45.550;12.074;2022-09-09T11:11:02;0.85;;;0.68;;
53285;SDS011;39171;45.550;12.074;2022-09-09T11:17:15;0.77;;;0.60;;
53285;SDS011;39171;45.550;12.074;2022-09-09T11:23:24;0.90;;;0.65;;
53285;SDS011;39171;45.550;12.074;2022-09-09T11:42:06;1.67;;;0.88;;
53285;SDS011;39171;45.550;12.074;2022-09-09T11:48:23;0.80;;;0.60;;
53285;SDS011;39171;45.550;12.074;2022-09-09T11:54:33;0.95;;;0.50;;
53285;SDS011;39171;45.550;12.074;2022-09-09T12:00:46;1.10;;;0.60;;
53285;SDS011;39171;45.550;12.074;2022-09-09T12:06:50;1.23;;;0.68;;
53285;SDS011;39171;45.550;12.074;2022-09-09T12:12:55;1.00;;;0.75;;
53285;SDS011;39171;45.550;12.074;2022-09-09T12:38:17;2.25;;;0.90;;
53285;SDS011;39171;45.550;12.074;2022-09-09T12:44:31;1.10;;;0.75;;
53285;SDS011;39171;45.550;12.074;2022-09-09T12:50:34;1.27;;;0.82;;
53285;SDS011;39171;45.550;12.074;2022-09-09T12:56:38;1.05;;;0.65;;
53285;SDS011;39171;45.550;12.074;2022-09-09T13:02:47;0.73;;;0.57;;
53285;SDS011;39171;45.550;12.074;2022-09-09T13:08:54;0.60;;;0.40;;
53285;SDS011;39171;45.550;12.074;2022-09-09T13:14:56;0.57;;;0.50;;
53285;SDS011;39171;45.550;12.074;2022-09-09T13:20:58;1.17;;;0.43;;
53285;SDS011;39171;45.550;12.074;2022-09-09T13:39:15;1.98;;;1.23;;
53285;SDS011;39171;45.550;12.074;2022-09-09T13:45:21;2.83;;;1.10;;
53285;SDS011;39171;45.550;12.074;2022-09-09T13:51:33;2.10;;;1.02;;
53285;SDS011;39171;45.550;12.074;2022-09-09T13:57:38;1.67;;;0.98;;
53285;SDS011;39171;45.550;12.074;2022-09-09T14:03:39;1.38;;;0.68;;
53285;SDS011;39171;45.550;12.074;2022-09-09T14:09:41;1.17;;;0.70;;
53285;SDS011;39171;45.550;12.074;2022-09-09T14:15:42;1.25;;;0.65;;
53285;SDS011;39171;45.550;12.074;2022-09-09T14:21:44;0.95;;;0.57;;
53285;SDS011;39171;45.550;12.074;2022-09-09T14:27:45;0.55;;;0.40;;
53285;SDS011;39171;45.550;12.074;2022-09-09T14:33:47;0.73;;;0.47;;
53285;SDS011;39171;45.550;12.074;2022-09-09T14:39:49;0.52;;;0.30;;
53285;SDS011;39171;45.550;12.074;2022-09-09T14:45:51;0.32;;;0.30;;
53285;SDS011;39171;45.550;12.074;2022-09-09T14:51:55;0.43;;;0.30;;
53285;SDS011;39171;45.550;12.074;2022-09-09T14:57:57;1.00;;;0.55;;
53285;SDS011;39171;45.550;12.074;2022-09-09T15:04:00;1.20;;;0.60;;
53285;SDS011;39171;45.550;12.074;2022-09-09T15:10:03;1.75;;;0.70;;
53285;SDS011;39171;45.550;12.074;2022-09-09T15:16:05;1.05;;;0.60;;
53285;SDS011;39171;45.550;12.074;2022-09-09T15:22:15;1.23;;;0.70;;
53285;SDS011;39171;45.550;12.074;2022-09-09T15:28:20;1.75;;;0.70;;
53285;SDS011;39171;45.550;12.074;2022-09-09T15:34:22;0.60;;;0.45;;
53285;SDS011;39171;45.550;12.074;2022-09-09T15:40:24;0.68;;;0.50;;
53285;SDS011;39171;45.550;12.074;2022-09-09T15:46:30;0.80;;;0.52;;
53285;SDS011;39171;45.550;12.074;2022-09-09T15:59:11;0.63;;;0.50;;
53285;SDS011;39171;45.550;12.074;2022-09-09T16:05:15;0.50;;;0.40;;
53285;SDS011;39171;45.550;12.074;2022-09-09T16:11:18;0.40;;;0.30;;
53285;SDS011;39171;45.550;12.074;2022-09-09T16:17:21;0.50;;;0.40;;
53285;SDS011;39171;45.550;12.074;2022-09-09T16:23:22;0.75;;;0.60;;
53285;SDS011;39171;45.550;12.074;2022-09-09T16:29:29;0.52;;;0.43;;
53285;SDS011;39171;45.550;12.074;2022-09-09T16:35:31;0.95;;;0.60;;
53285;SDS011;39171;45.550;12.074;2022-09-09T16:41:37;0.75;;;0.50;;
53285;SDS011;39171;45.550;12.074;2022-09-09T16:47:40;0.75;;;0.50;;
53285;SDS011;39171;45.550;12.074;2022-09-09T16:53:41;0.60;;;0.40;;
53285;SDS011;39171;45.550;12.074;2022-09-09T16:59:43;0.70;;;0.40;;
53285;SDS011;39171;45.550;12.074;2022-09-09T17:05:45;1.05;;;0.60;;
53285;SDS011;39171;45.550;12.074;2022-09-09T17:11:47;0.40;;;0.30;;
53285;SDS011;39171;45.550;12.074;2022-09-09T17:17:51;0.52;;;0.40;;
53285;SDS011;39171;45.550;12.074;2022-09-09T17:23:54;0.77;;;0.60;;
53285;SDS011;39171;45.550;12.074;2022-09-09T17:29:57;0.68;;;0.55;;
53285;SDS011;39171;45.550;12.074;2022-09-09T17:35:59;0.80;;;0.60;;
53285;SDS011;39171;45.550;12.074;2022-09-09T17:42:02;0.70;;;0.60;;
53285;SDS011;39171;45.550;12.074;2022-09-09T17:48:04;1.80;;;0.70;;
53285;SDS011;39171;45.550;12.074;2022-09-09T17:54:09;0.77;;;0.57;;
53285;SDS011;39171;45.550;12.074;2022-09-09T18:00:15;0.93;;;0.70;;
53285;SDS011;39171;45.550;12.074;2022-09-09T18:06:20;2.20;;;1.20;;
53285;SDS011;39171;45.550;12.074;2022-09-09T18:12:23;1.58;;;1.20;;
53285;SDS011;39171;45.550;12.074;2022-09-09T18:18:25;2.20;;;1.60;;
53285;SDS011;39171;45.550;12.074;2022-09-09T18:24:28;2.22;;;1.77;;
53285;SDS011;39171;45.550;12.074;2022-09-09T18:30:30;2.80;;;2.17;;
53285;SDS011;39171;45.550;12.074;2022-09-09T18:36:33;3.03;;;2.15;;
53285;SDS011;39171;45.550;12.074;2022-09-09T18:42:38;2.40;;;1.88;;
53285;SDS011;39171;45.550;12.074;2022-09-09T18:48:39;2.30;;;1.55;;
53285;SDS011;39171;45.550;12.074;2022-09-09T18:54:41;2.97;;;1.88;;
53285;SDS011;39171;45.550;12.074;2022-09-09T19:00:45;3.08;;;1.70;;
53285;SDS011;39171;45.550;12.074;2022-09-09T19:06:47;2.60;;;1.73;;
53285;SDS011;39171;45.550;12.074;2022-09-09T19:12:49;2.17;;;1.40;;
53285;SDS011;39171;45.550;12.074;2022-09-09T19:18:50;2.75;;;1.75;;
53285;SDS011;39171;45.550;12.074;2022-09-09T19:24:56;1.70;;;1.40;;
53285;SDS011;39171;45.550;12.074;2022-09-09T19:31:05;2.58;;;1.02;;
53285;SDS011;39171;45.550;12.074;2022-09-09T19:37:07;2.03;;;1.20;;
53285;SDS011;39171;45.550;12.074;2022-09-09T19:43:09;1.85;;;1.10;;
53285;SDS011;39171;45.550;12.074;2022-09-09T19:49:13;1.77;;;1.10;;
53285;SDS011;39171;45.550;12.074;2022-09-09T19:55:18;1.45;;;1.13;;
53285;SDS011;39171;45.550;12.074;2022-09-09T20:01:21;1.52;;;0.90;;
53285;SDS011;39171;45.550;12.074;2022-09-09T20:07:24;1.50;;;1.00;;
53285;SDS011;39171;45.550;12.074;2022-09-09T20:13:30;1.58;;;1.10;;
53285;SDS011;39171;45.550;12.074;2022-09-09T20:19:33;1.02;;;0.77;;
53285;SDS011;39171;45.550;12.074;2022-09-09T20:25:35;0.85;;;0.70;;
53285;SDS011;39171;45.550;12.074;2022-09-09T20:31:38;1.05;;;0.77;;
53285;SDS011;39171;45.550;12.074;2022-09-09T20:37:40;1.63;;;0.90;;
53285;SDS011;39171;45.550;12.074;2022-09-09T20:43:45;1.08;;;0.75;;
53285;SDS011;39171;45.550;12.074;2022-09-09T20:49:51;1.35;;;0.90;;
53285;SDS011;39171;45.550;12.074;2022-09-09T20:55:57;1.20;;;0.93;;
53285;SDS011;39171;45.550;12.074;2022-09-09T21:02:00;1.42;;;0.90;;
53285;SDS011;39171;45.550;12.074;2022-09-09T21:08:02;1.27;;;0.68;;
53285;SDS011;39171;45.550;12.074;2022-09-09T21:14:03;0.82;;;0.70;;
53285;SDS011;39171;45.550;12.074;2022-09-09T21:20:05;1.00;;;0.80;;
53285;SDS011;39171;45.550;12.074;2022-09-09T21:26:09;1.20;;;0.80;;
53285;SDS011;39171;45.550;12.074;2022-09-09T21:32:10;1.42;;;1.00;;
53285;SDS011;39171;45.550;12.074;2022-09-09T21:38:13;1.30;;;0.95;;
53285;SDS011;39171;45.550;12.074;2022-09-09T21:44:17;1.75;;;1.00;;
53285;SDS011;39171;45.550;12.074;2022-09-09T21:50:18;1.52;;;1.00;;
53285;SDS011;39171;45.550;12.074;2022-09-09T21:56:21;1.63;;;1.17;;
53285;SDS011;39171;45.550;12.074;2022-09-09T22:02:23;1.10;;;0.85;;
53285;SDS011;39171;45.550;12.074;2022-09-09T22:08:25;1.27;;;0.90;;
53285;SDS011;39171;45.550;12.074;2022-09-09T22:14:26;2.08;;;0.95;;
53285;SDS011;39171;45.550;12.074;2022-09-09T22:20:37;1.60;;;0.98;;
53285;SDS011;39171;45.550;12.074;2022-09-09T22:26:41;1.55;;;1.00;;
53285;SDS011;39171;45.550;12.074;2022-09-09T22:32:42;1.20;;;1.08;;
53285;SDS011;39171;45.550;12.074;2022-09-09T22:38:44;1.15;;;0.85;;
53285;SDS011;39171;45.550;12.074;2022-09-09T22:44:46;1.63;;;1.00;;
53285;SDS011;39171;45.550;12.074;2022-09-09T22:50:47;1.30;;;0.98;;
53285;SDS011;39171;45.550;12.074;2022-09-09T22:56:49;1.20;;;0.88;;
53285;SDS011;39171;45.550;12.074;2022-09-09T23:02:51;1.50;;;1.10;;
53285;SDS011;39171;45.550;12.074;2022-09-09T23:08:54;1.10;;;0.82;;
53285;SDS011;39171;45.550;12.074;2022-09-09T23:14:57;1.40;;;0.90;;
53285;SDS011;39171;45.550;12.074;2022-09-09T23:20:59;1.88;;;1.00;;
53285;SDS011;39171;45.550;12.074;2022-09-09T23:27:00;1.25;;;0.88;;
53285;SDS011;39171;45.550;12.074;2022-09-09T23:33:02;1.15;;;0.80;;
53285;SDS011;39171;45.550;12.074;2022-09-09T23:39:04;0.90;;;0.80;;
53285;SDS011;39171;45.550;12.074;2022-09-09T23:45:07;1.20;;;0.80;;
53285;SDS011;39171;45.550;12.074;2022-09-09T23:51:10;1.00;;;0.70;;
53285;SDS011;39171;45.550;12.074;2022-09-09T23:57:17;1.45;;;0.80;;
